createdAt,value
2018-12-08T00:02:31.629Z,76.30
2018-12-08T00:05:11.679Z,76.30
2018-12-08T00:08:24.746Z,76.30
2018-12-08T00:10:55.203Z,76.20
2018-12-08T00:13:31.545Z,75.60
2018-12-08T00:16:07.009Z,74.80
2018-12-08T00:28:03.700Z,74.70
2018-12-08T00:30:44.233Z,74.70
2018-12-08T00:33:17.797Z,74.90
2018-12-08T00:38:29.069Z,74.40
2018-12-08T00:41:02.500Z,74.40
2018-12-08T00:46:11.850Z,73.60
2018-12-08T00:48:49.953Z,73.80
2018-12-08T00:53:56.229Z,74.00
2018-12-08T00:56:28.646Z,73.90
2018-12-08T00:59:02.744Z,73.80
2018-12-08T01:01:40.783Z,73.50
2018-12-08T01:04:12.242Z,73.40
2018-12-08T01:07:05.470Z,73.40
2018-12-08T01:09:53.191Z,73.50
2018-12-08T01:12:28.018Z,73.10
2018-12-08T01:14:57.304Z,72.60
2018-12-08T01:17:41.912Z,72.80
2018-12-08T01:20:16.883Z,73.00
2018-12-08T01:22:47.281Z,72.70
2018-12-08T01:25:17.611Z,72.50
2018-12-08T01:31:24.702Z,72.40
2018-12-08T01:33:56.968Z,72.40
2018-12-08T01:36:42.323Z,72.20
2018-12-08T01:39:17.886Z,71.90
2018-12-08T01:41:48.770Z,71.80
2018-12-08T01:47:51.452Z,72.10
2018-12-08T01:50:21.112Z,72.50
2018-12-08T01:52:53.385Z,72.60
2018-12-08T01:55:30.119Z,72.60
2018-12-08T01:57:59.564Z,72.30
2018-12-08T02:00:31.935Z,72.20
2018-12-08T02:03:06.279Z,72.50
2018-12-08T02:05:44.981Z,72.80
2018-12-08T02:08:18.369Z,72.80
2018-12-08T02:10:52.721Z,72.50
2018-12-08T02:13:24.190Z,71.90
2018-12-08T02:15:54.892Z,71.90
2018-12-08T02:18:31.031Z,72.20
2018-12-08T02:21:01.892Z,72.20
2018-12-08T02:23:32.480Z,72.20
2018-12-08T02:26:11.164Z,72.40
2018-12-08T02:28:45.930Z,72.40
2018-12-08T02:31:18.462Z,72.40
2018-12-08T02:33:52.327Z,72.40
2018-12-08T02:39:14.440Z,72.50
2018-12-08T02:41:55.679Z,72.50
2018-12-08T02:44:34.825Z,72.40
2018-12-08T02:47:19.212Z,72.50
2018-12-08T02:49:53.936Z,72.50
2018-12-08T02:52:23.193Z,72.40
2018-12-08T02:54:57.085Z,72.30
2018-12-08T02:57:26.961Z,72.20
2018-12-08T02:59:58.898Z,72.40
2018-12-08T03:02:28.789Z,72.40
2018-12-08T03:04:57.696Z,72.20
2018-12-08T03:07:27.035Z,72.20
2018-12-08T03:09:56.380Z,72.30
2018-12-08T03:12:29.565Z,72.30
2018-12-08T03:14:58.728Z,72.30
2018-12-08T03:17:28.004Z,72.30
2018-12-08T03:19:57.447Z,72.30
2018-12-08T03:22:27.194Z,72.10
2018-12-08T03:24:56.100Z,71.90
2018-12-08T03:27:26.025Z,72.00
2018-12-08T03:29:55.605Z,71.90
2018-12-08T03:32:26.175Z,71.80
2018-12-08T03:34:55.359Z,72.30
2018-12-08T03:37:29.486Z,71.70
2018-12-08T03:39:58.346Z,71.60
2018-12-08T03:42:28.861Z,71.40
2018-12-08T03:44:57.793Z,71.20
2018-12-08T03:47:26.530Z,71.30
2018-12-08T03:50:19.052Z,71.10
2018-12-08T03:52:51.862Z,71.10
2018-12-08T03:55:23.012Z,71.00
2018-12-08T03:57:52.670Z,70.90
2018-12-08T04:00:27.872Z,70.80
2018-12-08T04:03:01.938Z,70.70
2018-12-08T04:05:41.228Z,70.80
2018-12-08T04:08:55.961Z,70.70
2018-12-08T04:12:19.066Z,70.60
2018-12-08T04:17:43.327Z,70.10
2018-12-08T04:20:17.196Z,69.90
2018-12-08T04:22:48.356Z,69.80
2018-12-08T04:25:18.267Z,69.80
2018-12-08T04:30:28.664Z,69.40
2018-12-08T04:33:00.122Z,69.30
2018-12-08T04:35:38.361Z,69.30
2018-12-08T04:38:33.879Z,69.20
2018-12-08T04:41:05.471Z,69.20
2018-12-08T04:43:43.856Z,69.00
2018-12-08T04:46:13.224Z,69.00
2018-12-08T04:48:47.809Z,69.00
2018-12-08T04:51:21.469Z,68.80
2018-12-08T04:53:56.895Z,68.80
2018-12-08T04:59:10.549Z,68.50
2018-12-08T05:01:41.896Z,68.50
2018-12-08T05:04:14.507Z,68.50
2018-12-08T05:09:22.525Z,68.40
2018-12-08T05:11:55.509Z,68.30
2018-12-08T05:17:06.141Z,68.20
2018-12-08T05:19:43.214Z,68.30
2018-12-08T05:22:13.681Z,68.40
2018-12-08T05:24:53.858Z,68.30
2018-12-08T05:27:42.925Z,68.10
2018-12-08T05:30:12.842Z,68.20
2018-12-08T05:32:48.488Z,68.10
2018-12-08T05:35:19.705Z,67.90
2018-12-08T05:37:57.148Z,67.80
2018-12-08T05:40:31.236Z,67.50
2018-12-08T05:45:42.382Z,67.20
2018-12-08T05:55:07.767Z,66.30
2018-12-08T06:00:59.738Z,66.50
2018-12-08T06:03:31.496Z,66.40
2018-12-08T06:06:07.150Z,66.40
2018-12-08T06:09:06.140Z,66.30
2018-12-08T06:17:02.734Z,66.20
2018-12-08T06:19:36.750Z,66.10
2018-12-08T06:22:17.176Z,66.30
2018-12-08T06:24:47.715Z,66.40
2018-12-08T06:27:30.111Z,66.40
2018-12-08T06:32:39.430Z,66.30
2018-12-08T06:35:15.745Z,66.20
2018-12-08T06:37:53.373Z,66.10
2018-12-08T06:40:32.381Z,66.10
2018-12-08T06:43:17.120Z,66.10
2018-12-08T06:45:56.161Z,66.00
2018-12-08T06:48:26.972Z,66.00
2018-12-08T06:53:49.850Z,66.00
2018-12-08T06:56:23.147Z,65.90
2018-12-08T06:59:06.373Z,65.70
2018-12-08T07:01:43.539Z,65.60
2018-12-08T07:04:21.458Z,65.60
2018-12-08T07:09:57.771Z,65.50
2018-12-08T07:12:40.126Z,65.40
2018-12-08T07:35:27.379Z,65.40
2018-12-08T07:46:35.245Z,64.80
2018-12-08T07:49:19.313Z,64.70
2018-12-08T07:54:35.183Z,64.50
2018-12-08T07:57:06.003Z,64.60
2018-12-08T08:05:13.264Z,64.20
2018-12-08T09:29:16.444Z,70.40
2018-12-08T10:29:59.243Z,73.50
2018-12-08T10:32:28.277Z,72.90
2018-12-08T10:34:56.774Z,73.10
2018-12-08T10:37:25.513Z,73.10
2018-12-08T10:39:54.840Z,73.10
2018-12-08T10:42:23.505Z,73.10
2018-12-08T10:44:52.385Z,73.20
2018-12-08T10:47:20.800Z,73.20
2018-12-08T11:59:52.587Z,72.60
2018-12-08T12:05:24.749Z,72.10
2018-12-08T12:26:06.045Z,71.20
2018-12-08T12:34:25.372Z,71.00
2018-12-08T12:36:58.865Z,71.00
2018-12-08T12:39:35.638Z,71.20
2018-12-08T12:44:48.341Z,71.10
2018-12-08T12:50:44.170Z,71.20
2018-12-08T13:10:20.388Z,71.00
2018-12-08T13:15:48.336Z,70.80
2018-12-08T13:21:53.698Z,70.90
2018-12-08T13:24:31.011Z,71.00
2018-12-08T13:29:53.696Z,71.30
2018-12-08T13:35:28.277Z,71.50
2018-12-08T13:38:11.627Z,72.20
2018-12-08T13:43:31.080Z,71.80
2018-12-08T13:46:06.933Z,72.00
2018-12-08T13:48:53.818Z,72.10
2018-12-08T13:51:34.001Z,72.20
2018-12-08T13:54:11.774Z,72.20
2018-12-08T14:00:01.698Z,72.20
2018-12-08T14:02:41.577Z,72.20
2018-12-08T14:05:21.660Z,72.30
2018-12-08T14:23:36.290Z,71.80
2018-12-08T14:26:10.456Z,72.00
2018-12-08T14:28:57.652Z,72.00
2018-12-08T14:31:42.339Z,72.00
2018-12-08T14:34:28.504Z,72.10
2018-12-08T14:37:08.514Z,72.00
2018-12-08T14:39:47.590Z,71.90
2018-12-08T14:42:22.516Z,72.00
2018-12-08T14:45:01.708Z,71.80
2018-12-08T14:58:40.004Z,71.60
2018-12-08T15:01:27.532Z,71.70
2018-12-08T15:17:48.797Z,72.10
2018-12-08T15:20:25.849Z,72.00
2018-12-08T15:25:52.604Z,71.90
2018-12-08T15:28:44.540Z,71.80
2018-12-08T15:34:10.805Z,71.50
2018-12-08T15:42:14.177Z,71.20
2018-12-08T15:50:40.070Z,71.00
2018-12-08T15:58:56.653Z,70.80
2018-12-08T16:01:27.894Z,70.80
2018-12-08T16:06:43.501Z,70.80
2018-12-08T16:09:40.763Z,70.80
2018-12-08T16:12:23.727Z,70.80
2018-12-08T16:18:19.604Z,70.70
2018-12-08T16:20:51.952Z,70.70
2018-12-08T16:23:31.878Z,70.50
2018-12-08T16:26:08.343Z,70.50
2018-12-08T16:28:42.851Z,70.50
2018-12-08T16:34:11.612Z,70.30
2018-12-08T16:36:51.378Z,70.40
2018-12-08T16:39:39.087Z,70.60
2018-12-08T16:42:25.511Z,70.80
2018-12-08T16:45:15.942Z,71.20
2018-12-08T16:57:43.190Z,72.70
2018-12-08T17:37:16.858Z,72.00
2018-12-08T17:43:20.211Z,71.60
2018-12-08T17:52:08.311Z,71.20
2018-12-08T18:52:20.110Z,70.40
2018-12-08T18:55:13.012Z,70.50
2018-12-08T19:26:56.006Z,69.20
2018-12-08T21:41:23.141Z,65.60
2018-12-08T22:09:40.155Z,66.30
2018-12-08T22:12:23.718Z,66.40
2018-12-08T22:48:52.679Z,66.00
2018-12-08T23:02:51.165Z,68.30
2018-12-08T23:30:46.176Z,69.80
2018-12-08T23:33:29.252Z,69.60
2018-12-08T23:47:07.593Z,69.60
2018-12-08T23:52:24.433Z,70.00
